This is the latest recevied weather packets stored in our database for station/object KB0BS-13. If no packets are shown the sender has not sent any weather packets the latest 10 day(s).
| Time | Temp. | Humidity | Pressure | Rain* | Wind** | Luminosity | Snow |
|---|---|---|---|---|---|---|---|
| 1777926432 | 13.33° C | 66% | 994.7 hPa | 0 mm | - | 27 W/m² | - |
| 1777926129 | 13.33° C | 62% | 994.6 hPa | 0 mm | - | 21 W/m² | - |
| 1777925826 | 13.33° C | 63% | 994.7 hPa | 0 mm | - | 32 W/m² | - |
| 1777925524 | 13.89° C | 65% | 994.5 hPa | 0 mm | - | 58 W/m² | - |
| 1777925221 | 13.89° C | 62% | 994.2 hPa | 0 mm | - | 43 W/m² | - |
| 1777924917 | 13.89° C | 61% | 994.4 hPa | 0 mm | - | 58 W/m² | - |
| 1777924613 | 14.44° C | 59% | 994.3 hPa | 0 mm | - | 65 W/m² | - |
| 1777924309 | 15° C | 56% | 994.4 hPa | 0 mm | - | 101 W/m² | - |
| 1777924006 | 15° C | 55% | 994.6 hPa | 0 mm | - | 124 W/m² | - |
| 1777923703 | 15° C | 55% | 994.6 hPa | 0 mm | - | 139 W/m² | - |
| 1777923399 | 15° C | 54% | 994.5 hPa | 0 mm | - | 209 W/m² | - |
| 1777923097 | 14.44° C | 56% | 994.6 hPa | 0 mm | - | 166 W/m² | - |
| 1777922795 | 14.44° C | 56% | 994.6 hPa | 0 mm | - | 169 W/m² | - |
| 1777922493 | 14.44° C | 58% | 994.5 hPa | 0 mm | - | 172 W/m² | - |
| 1777922191 | 14.44° C | 61% | 994.5 hPa | 0 mm | - | 196 W/m² | - |
| 1777921887 | 14.44° C | 60% | 994.4 hPa | 0 mm | - | 182 W/m² | - |
| 1777921583 | 13.89° C | 62% | 994.3 hPa | 0 mm | - | 196 W/m² | - |
| 1777921280 | 14.44° C | 58% | 994.5 hPa | 0 mm | - | 191 W/m² | - |
| 1777920976 | 13.89° C | 57% | 994.3 hPa | 0 mm | - | 151 W/m² | - |
| 1777920673 | 15° C | 53% | 994.4 hPa | 0 mm | - | 91 W/m² | - |
| 1777920368 | 15.56° C | 51% | 994.1 hPa | 0 mm | - | 55 W/m² | - |
| 1777920064 | 16.11° C | 50% | 993.7 hPa | 0 mm | - | 126 W/m² | - |
| 1777919761 | 16.67° C | 47% | 993.4 hPa | 0 mm | - | 66 W/m² | - |
| 1777919459 | 16.67° C | 50% | 993.4 hPa | 0 mm | - | 86 W/m² | - |
| 1777919156 | 16.67° C | 50% | 993.3 hPa | 0 mm | - | 99 W/m² | - |
* Rain latest hour (hover to see other rain measurements)
** Current wind speed in m/s (hover to see current wind gust speed)